Portada
METAR-TAF:

METAR-TAF

Aeropuertos :

Ramsar, Irán

latitud: 36-54N, longitud: 050-40E, altitud: -23 m

Observación

El informe se hizo hace 20 minutos, a las 06:00 UTC
Viento 4 kt del sur-suroeste
Temperatura 16°C
Humedad 72%
Presión 1009 hPa
Visibilidad 10 km o más
Nubes dispersas a una altura de 9000 ft

METAR: OINR 130600Z 21004KT 9999 SCT090 16/11 Q1009

Hora: 09:50 (06:20 UTC)


TAF: falta

Observaciones y pronósticos meteorológicos de más de 4000 aeropuertos (mensajes METAR y TAF).

Los puntos amarillos y rojos representan las estaciones disponibles.

Ponga el ratón en el punto deseado para ver el nombre de la estación.

Haga clic para ver las observaciones y los pronósticos meteorológicos.

Para cambiar el mapa : haga clic en los botones verdes con una cruz de color negro para hacer un zoom, en el botón verde con un guión para alejar o en las flechas verdes para mapas adyacentes.


METAR-TAF: